• Join FlightAware (Why Join?)
  • Login
  • US Flag 
08:38AM EDT


 

Airport Tracker/Info


-or-


 

Live Flight TrackerFlight Track Log ✈ DAL3606 ✈ 29-Apr-2013 ✈ KATL - KIAD

Flight Track Log - Related Links

Times and Time Zones

All times are in EDT time to prevent confusion due to time zone crossing. See the DAL3606 flight status page for this flight to view local times or setup timezone preferences in your user account.

Time Position Orientation Groundspeed Altitude Reporting Facility
EDT Latitude Longitude Course Direction KTS MPH feet Rate Location/Type
07:48AM 33.6333 -84.4000 53° Northeast 176 203 1,600  Level Atlanta TRACON
07:49AM 33.6333 -84.3333 90° East 226 260 2,600 1,800 Climbing Atlanta TRACON
07:50AM 33.7339 -84.0046 54° Northeast  Level FlightAware Approximate
07:50AM 33.6167 -84.2333 101° East 280 322 5,200  Level Atlanta TRACON
07:51AM 33.8041 -83.8879 54° Northeast  Level FlightAware Approximate
07:51AM 33.6000 -84.1500 103° East 292 336 7,700  Level Atlanta TRACON
07:51AM 33.5897 -84.1111 108° East 304 350 8,500 1,920 Climbing Atlanta Center
07:52AM 33.8752 -83.7720 48° Northeast  Level FlightAware Approximate
07:52AM 33.6231 -84.0314 63° Northeast 313 360 10,400  Level Atlanta Center
07:53AM 33.9515 -83.6609 53° Northeast  Level FlightAware Approximate
07:53AM 33.6961 -83.9564 40° Northeast 315 362 12,100  Level Atlanta Center
07:54AM 33.7753 -83.8764 40° Northeast 347 399 14,300 2,100 Climbing Atlanta Center
07:55AM 33.8544 -83.7936 41° Northeast 366 421 16,400 1,920 Climbing Atlanta Center
07:56AM 33.9336 -83.7083 42° Northeast 371 427 18,200 1,620 Climbing Atlanta Center
07:57AM 34.0022 -83.6028 52° Northeast 385 443 19,700 1,200 Climbing Atlanta Center
07:58AM 34.0747 -83.4869 53° Northeast 415 478 20,700 960 Climbing Atlanta Center
07:59AM 34.1494 -83.3711 52° Northeast 436 502 21,700 1,080 Climbing Atlanta Center
08:00AM 34.2258 -83.2475 53° Northeast 452 520 22,900 1,200 Climbing Atlanta Center
08:01AM 34.3103 -83.1058 54° Northeast 457 526 24,200 1,200 Climbing Atlanta Center
08:02AM 34.3928 -82.9789 52° Northeast 469 540 25,400 1,200 Climbing Atlanta Center
08:03AM 34.4731 -82.8494 53° Northeast 475 547 26,600 1,320 Climbing Atlanta Center
08:04AM 34.5553 -82.7222 52° Northeast 481 554 28,100 1,440 Climbing Atlanta Center
08:05AM 34.6331 -82.5897 54° Northeast 481 554 29,500 1,200 Climbing Atlanta Center
08:06AM 34.7086 -82.4594 55° Northeast 470 541 30,600 720 Climbing Atlanta Center
08:07AM 34.7883 -82.3317 53° Northeast 477 549 31,000 180 Climbing Atlanta Center
08:08AM 34.8739 -82.1906 54° Northeast 489 563 31,000  Level Atlanta Center
08:09AM 34.9533 -82.0722 51° Northeast 501 577 31,100 600 Climbing Atlanta Center
08:10AM 35.0344 -81.9283 55° Northeast 509 586 32,200 900 Climbing Atlanta Center
08:11AM 35.1133 -81.7789 57° Northeast 514 592 33,000 360 Climbing Atlanta Center
08:12AM 35.2019 -81.6114 57° Northeast 519 597 33,000  Level Atlanta Center
08:13AM 35.2822 -81.4564 58° Northeast 533 613 33,000  Level Atlanta Center
08:14AM 35.3664 -81.2983 57° Northeast 544 626 33,000  Level Atlanta Center
08:15AM 35.4483 -81.1375 58° Northeast 554 638 33,000  Level Atlanta Center
08:16AM 35.5239 -80.9919 57° Northeast 554 638 33,000  Level Atlanta Center
08:17AM 35.6056 -80.8383 57° Northeast 554 638 33,000  Level Atlanta Center
08:18AM 35.6928 -80.6686 58° Northeast 543 625 33,000  Level Atlanta Center
08:19AM 35.7739 -80.5092 58° Northeast 543 625 33,000  Level Atlanta Center
08:21AM 35.9294 -80.2017 58° Northeast 524 603 33,000  Level Washington Center
08:22AM 36.0081 -80.0547 56° Northeast 524 603 33,000  Level Washington Center
08:23AM 36.0908 -79.9025 56° Northeast 524 603 33,000  Level Washington Center
08:24AM 36.1758 -79.7478 56° Northeast 530 610 33,000  Level Washington Center
08:25AM 36.2511 -79.6153 55° Northeast 530 610 33,000 -240 Level Washington Center
08:26AM 36.3375 -79.4650 54° Northeast 501 577 32,600 -540 Descending Washington Center
08:27AM 36.4128 -79.3267 56° Northeast 495 570 32,000 -840 Descending Washington Center
08:28AM 36.4922 -79.1858 55° Northeast 490 564 31,000 -1,500 Descending Washington Center
08:29AM 36.5714 -79.0525 53° Northeast 485 558 29,000 -2,040 Descending Washington Center
08:30AM 36.6483 -78.9083 56° Northeast 485 558 27,000 -1,980 Descending Washington Center
08:31AM 36.7144 -78.7867 56° Northeast 485 558 25,100 -1,020 Descending Washington Center
08:32AM 36.7844 -78.6547 56° Northeast 467 537 25,000 -60 Descending Washington Center
08:33AM 36.8633 -78.5125 55° Northeast 456 525 25,000  Level Washington Center
08:34AM 36.9286 -78.3953 55° Northeast 456 525 25,000  Level Washington Center
08:35AM 37.0050 -78.2525 56° Northeast 462 532 25,000  Level Washington Center
08:36AM 37.0944 -78.1619 39° Northeast 410 472 25,000 -300 Level Washington Center
08:37AM 37.1919 -78.0894 31° Northeast 405 466 24,500 -540 Descending Washington Center
08:38AM 37.2981 -78.0069 32° Northeast 412 474 24,000 -540 Descending Washington Center
08:39AM 37.4103 -77.9214 31° Northeast 446 513 23,500 -540 Descending Washington Center
08:40AM 37.5244 -77.8333 31° Northeast 469 540 23,000 -780 Descending Washington Center
08:41AM 37.6425 -77.7633 25° Northeast 474 545 22,000 -1,080 Descending Washington Center
08:42AM 37.7544 -77.6956 26° Northeast 454 522 20,900 -2,100 Descending Washington Center
08:43AM 37.8661 -77.6331 24° Northeast 441 507 17,800 -3,000 Descending Washington Center
08:44AM 37.9692 -77.5700 26° Northeast 425 489 14,900 -2,760 Descending Washington Center
08:45AM 38.0744 -77.5147 22° Northeast 412 474 12,300 -2,400 Descending Washington Center
08:46AM 38.1692 -77.4564 26° Northeast 400 460 10,200 -1,200 Descending Washington Center
08:47AM 38.2511 -77.4081 25° Northeast 351 404 10,000 -420 Descending Washington Center
08:48AM 38.3228 -77.3650 25° Northeast 311 358 9,400 -960 Descending Washington Center
08:49AM 38.4022 -77.3589 North 283 326 8,100 -1,320 Descending Washington Center
08:50AM 38.4814 -77.3633 357° North 278 320 6,800 -1,320 Descending Washington Center
08:51AM 38.5606 -77.3653 359° North 273 314 5,500 -1,200 Descending Washington Center
08:52AM 38.6397 -77.3644 360° North 273 314 4,500 -1,080 Descending Washington Center
08:52AM 38.6667 -77.3667 356° North 278 320 4,100 -420 Descending Potomac TRACON
08:53AM 38.7333 -77.3500 11° North 276 318 4,000 -60 Descending Potomac TRACON
08:54AM 38.8167 -77.3500 360° North 280 322 4,000  Level Potomac TRACON
08:55AM 38.9000 -77.3500 360° North 279 321 4,000  Level Potomac TRACON
08:56AM 38.9833 -77.3500 360° North 280 322 4,100 -360 Climbing Potomac TRACON
08:57AM 39.0500 -77.3500 360° North 274 315 3,400 -660 Descending Potomac TRACON
08:58AM 39.1167 -77.3500 360° North 255 293 3,000 -240 Descending Potomac TRACON
08:59AM 39.1333 -77.4167 288° West 224 258 3,000  Level Potomac TRACON